首页
METAR-TAF:

METAR-TAF

机场 :

迈克蒂亚西蒙·玻利瓦尔国际机场

卡拉卡斯, 委内瑞拉

纬度: 10-36N, 经度: 066-59W, 海拔: 43米

当前天气观测

该预报发布于27分钟前的13:00 UTC
风速3节,风向
温度 29°C
湿度 66%
气压 1012 hPa
能见度10公里或以上
散云层高于1600英尺

METAR: SVMI 221300Z 09003KT 9999 SCT016 29/22 Q1012

时间: 09:27 (13:27 UTC)

预报

该预报发布于3小时和27分钟前的10:00 UTC
预报有效从22日的 12点(UTC)到 23日的 12点(UTC)
风速4节,风向西
能见度10公里或以上
多云层高于1600英尺
毛毛雨
成为
从 22日的 14点(UTC)到 22日的 18点(UTC)
风速5节,风向西转西南
能见度10公里或以上
多云层高于1600英尺
毛毛雨

TAF: SVMI 221000Z 2212/2312 27004KT 9999 DZ BKN016 TX29/17Z TN23/09Z BECMG 2214/2218 25005KT 9999 DZ BKN016

超过4000个机场的气象观测和天气预报(METAR&TAF报告)。

可查询的气象台以黄色和红色小点在地图上表示。

将鼠标移到小点上方,可查看气象台名称。

然后点击查看天气观测和预报。

如需切换地图:点击带黑十字的绿色按钮放大地图;点击带横线的绿色按钮缩小地图;或者点击绿色箭头查看邻近地区的地图。


METAR-TAF: